Station: Smithton  

  Atmospheric Gas Attenuation - ITU Rec 676-11   ----------------- dB/100km -----------------
Date Time Temp RH % AH g/m3 Dew Point Wind Direction Speed kph Gust kph Barometer mB Rainfall Since 9am 24GHz 47GHz 76GHz 122GHz 134GHz 241GHz
05/05 08:40 12.7 93 10.35 11.6 20 24 1014.5 8 23.4 29.2 47.8 125.7 124.2 428.4
05/05 08:30 12.5 93 10.23 11.4 19 24 1014.4 8 23.2 29.1 47.4 124.7 122.8 423.5
05/05 08:20 12.1 93 9.97 11 17 19 1014.3 8 22.6 28.8 46.5 122.3 119.7 412.7
05/05 08:10 12.4 93 10.16 11.3 19 20 1014.2 8 23.0 29.0 47.1 124.0 121.9 420.5
05/05 08:00 11.7 92 9.62 10.4 17 20 1013.9 8 21.9 28.3 45.2 118.8 115.3 397.3
05/05 07:50 11.7 92 9.62 10.4 17 20 1013.7 8 21.9 28.3 45.2 118.8 115.3 397.3
05/05 07:40 11.5 92 9.5 10.2 17 20 1013.4 8 21.6 28.1 44.8 117.7 113.9 392.3
05/05 07:30 11.6 92 9.56 10.3 19 22 1013.2 7.8 21.8 28.2 45.0 118.2 114.5 394.7
05/05 07:20 11.1 91 9.17 9.7 19 20 1013.1 7.8 20.9 27.7 43.6 114.5 109.8 378.0
05/05 07:10 11 91 9.11 9.6 15 17 1012.8 7.8 20.8 27.6 43.4 113.9 109.1 375.4
05/05 07:00 11.2 91 9.23 9.8 19 26 1012.7 7.8 21.1 27.7 43.8 115.0 110.4 380.3
05/05 06:50 11.7 91 9.52 10.3 22 26 1012.6 7.8 21.7 28.0 44.7 117.5 113.8 392.0
05/05 06:40 11.9 92 9.74 10.6 28 33 1012.3 7.8 22.1 28.3 45.5 119.7 116.5 401.7
05/05 06:30 12.1 93 9.97 11 20 26 1012.1 7.8 22.6 28.7 46.4 122.0 119.5 412.0
05/05 06:20 12.2 93 10.04 11.1 24 28 1011.9 7.8 22.8 28.8 46.6 122.6 120.3 414.9
05/05 06:10 12.3 93 10.1 11.2 26 30 1011.7 7.8 22.9 28.8 46.8 123.2 121.0 417.2
05/05 06:00 12.4 94 10.27 11.5 20 32 1011.5 7.8 23.3 29.1 47.5 124.9 123.2 425.1
05/05 05:50 12.3 94 10.21 11.4 19 20 1011.3 7.8 23.1 29.0 47.3 124.4 122.5 422.6
05/05 05:40 12.5 94 10.34 11.6 19 20 1011.3 7.8 23.4 29.2 47.7 125.6 124.0 428.0
05/05 05:30 12.6 94 10.4 11.7 20 28 1011.1 7.8 23.5 29.2 47.9 126.1 124.7 430.3
05/05 05:20 12.5 94 10.34 11.6 19 20 1010.9 7.8 23.4 29.1 47.7 125.5 124.0 427.8
05/05 05:10 12.5 93 10.23 11.4 17 20 1010.7 7.8 23.2 28.9 47.2 124.2 122.4 422.3
05/05 05:00 12.8 93 10.42 11.7 20 30 1010.5 7.6 23.6 29.2 47.8 125.9 124.6 430.0
05/05 04:50 12.5 93 10.23 11.4 19 20 1010.3 7.6 23.2 28.9 47.2 124.2 122.4 422.1
05/05 04:40 12.5 94 10.34 11.6 19 20 1010.1 7.6 23.4 29.1 47.6 125.4 123.9 427.5
05/05 04:30 12.8 94 10.53 11.9 24 32 1009.8 7.6 23.8 29.3 48.3 127.1 126.1 435.3
05/05 04:20 12.7 94 10.46 11.8 22 28 1009.7 7.6 23.6 29.2 48.0 126.4 125.3 432.3
05/05 04:10 12.7 94 10.46 11.8 20 24 1009.4 7.6 23.7 29.2 48.0 126.4 125.2 432.2
05/05 04:00 12.7 95 10.58 11.9 22 28 1009.3 7.6 23.9 29.4 48.5 127.8 126.9 438.2
05/05 03:50 12.6 95 10.51 11.8 22 28 1009.1 7.6 23.8 29.3 48.3 127.1 126.1 435.1
05/05 03:40 12.6 95 10.51 11.8 15 19 1008.9 7.6 23.8 29.3 48.3 127.1 126.1 435.1
05/05 03:30 12.6 95 10.51 11.8 20 28 1008.8 7.6 23.8 29.3 48.3 127.1 126.0 435.0
05/05 03:20 12.6 95 10.51 11.8 20 22 1008.6 7.6 23.8 29.3 48.3 127.1 126.0 435.0
05/05 03:10 12.7 96 10.69 12.1 24 28 1008.5 7.6 24.1 29.6 49.0 129.0 128.4 443.4
05/05 03:00 12.2 96 10.36 11.6 19 28 1008.3 7.6 23.5 29.2 47.8 125.9 124.5 429.6
05/05 02:50 11.8 96 10.11 11.2 13 17 1008.1 7.6 22.9 28.9 47.0 123.6 121.6 419.3
05/05 02:40 11.5 96 9.92 10.9 19 20 1008.1 7.6 22.6 28.6 46.3 121.9 119.3 411.4
05/05 02:30 10.8 96 9.49 10.2 15 17 1007.9 7.6 21.7 28.1 44.9 118.0 114.3 393.6
05/05 02:20 10.1 95 8.99 9.3 13 15 1007.8 7.6 20.6 27.5 43.1 113.3 108.2 372.4
05/05 02:10 10.4 95 9.16 9.6 11 13 1007.7 7.6 21.0 27.6 43.7 114.8 110.2 379.3
05/05 02:00 10.7 95 9.33 9.9 13 15 1007.6 7.6 21.3 27.8 44.2 116.3 112.1 386.1
05/05 01:50 10.9 95 9.45 10.1 11 13 1007.5 7.6 21.6 28.0 44.6 117.4 113.5 391.0
05/05 01:40 11.2 95 9.63 10.4 11 13 1007.2 7.6 21.9 28.2 45.2 118.9 115.6 398.3
05/05 01:30 11.3 95 9.69 10.5 15 17 1007.1 7.6 22.1 28.3 45.4 119.5 116.3 400.7
05/05 01:20 11.4 95 9.75 10.6 15 17 1007 7.6 22.2 28.3 45.6 120.0 117.0 403.1
05/05 01:10 11.5 95 9.81 10.7 17 17 1007 7.6 22.3 28.4 45.8 120.5 117.7 405.6
05/05 01:00 11.6 95 9.88 10.8 17 20 1007 7.6 22.5 28.5 46.0 121.2 118.5 408.5
05/05 00:50 11.8 95 10 11 17 17 1006.8 7.6 22.7 28.6 46.4 122.2 119.9 413.3
05/05 00:40 11.9 95 10.06 11.1 15 17 1006.6 7.4 22.8 28.7 46.6 122.7 120.5 415.7
05/05 00:30 12 95 10.13 11.2 17 20 1006.4 7.4 23.0 28.8 46.9 123.4 121.4 418.6
05/05 00:20 12.1 94 10.08 11.2 17 19 1006.3 7.4 22.9 28.6 46.6 122.6 120.5 415.5
05/05 00:10 12.3 94 10.21 11.4 19 20 1006.3 7.4 23.1 28.8 47.0 123.8 122.0 420.9
05/05 00:00 12.5 94 10.34 11.6 15 19 1006.3 7.4 23.4 29.0 47.5 125.0 123.5 426.3
04/05 23:50 12.6 94 10.4 11.7 13 15 1006.1 7.2 23.5 29.0 47.6 125.5 124.2 428.6
04/05 23:40 12.6 93 10.29 11.5 17 17 1006 7 23.3 28.8 47.2 124.2 122.6 423.1
04/05 23:30 12.7 93 10.35 11.6 15 17 1006.1 7 23.4 28.9 47.4 124.7 123.3 425.6
04/05 23:20 12.8 93 10.42 11.7 15 17 1006.1 7 23.6 29.0 47.6 125.4 124.2 428.5
04/05 23:10 12.8 92 10.31 11.5 9 11 1006.1 6.8 23.3 28.8 47.1 124.1 122.6 423.1
04/05 23:00 12.7 92 10.24 11.4 17 20 1006.1 6.8 23.2 28.7 46.9 123.5 121.8 420.1
04/05 22:50 12.5 90 9.9 10.9 15 17 1006.1 6.8 22.5 28.2 45.6 119.9 117.3 404.5
04/05 22:40 12.8 89 9.97 11 13 15 1006.1 6.8 22.6 28.2 45.7 120.2 117.8 406.3
04/05 22:30 14.2 89 10.87 12.4 9 11 1006.1 6.8 24.5 29.3 48.7 128.3 128.2 442.9
04/05 22:20 14.3 89 10.93 12.5 11 13 1006 6.8 24.6 29.4 48.9 128.8 128.9 445.3
04/05 22:10 14.4 89 11 12.6 13 15 1006.1 6.8 24.7 29.5 49.1 129.4 129.7 448.2
04/05 22:00 14.1 90 10.92 12.5 7 13 1006.1 6.8 24.6 29.4 49.0 129.0 129.1 446.0
04/05 21:50 13.6 89 10.47 11.8 7 9 1006.1 6.8 23.6 28.8 47.3 124.7 123.6 426.6
04/05 21:40 13.8 88 10.49 11.8 9 11 1006.2 6.8 23.7 28.8 47.3 124.6 123.5 426.5
04/05 21:30 14.1 88 10.68 12.1 15 20 1006.1 6.8 24.0 29.0 47.9 126.3 125.7 434.1
04/05 21:20 14.2 88 10.75 12.2 17 19 1006.1 6.8 24.2 29.1 48.2 126.9 126.5 437.0
04/05 21:10 14.3 85 10.44 11.8 19 20 1006 6.8 23.5 28.5 46.8 123.2 122.0 421.2
04/05 21:00 15 88 11.28 13 13 22 1005.8 6.8 25.3 29.7 49.9 131.6 132.6 458.4
04/05 20:50 14.8 89 11.27 13 13 17 1005.8 6.8 25.3 29.8 50.0 131.8 132.8 459.1
04/05 20:40 14.8 89 11.27 13 15 17 1005.9 6.8 25.3 29.8 50.0 131.9 132.9 459.2
04/05 20:30 14.5 89 11.07 12.7 15 20 1005.9 6.8 24.9 29.5 49.4 130.1 130.5 451.0
04/05 20:20 14.4 90 11.13 12.8 15 17 1005.9 6.8 25.0 29.7 49.7 130.9 131.6 454.6
04/05 20:10 14.2 89 10.87 12.4 11 13 1006.1 6.8 24.5 29.3 48.7 128.3 128.2 442.9
04/05 20:00 14.2 89 10.87 12.4 13 17 1006.1 6.8 24.5 29.3 48.7 128.3 128.2 442.9
04/05 19:50 14 87 10.49 11.9 9 11 1006.1 6.8 23.6 28.7 47.2 124.3 123.2 425.3
04/05 19:40 13.8 86 10.25 11.5 4 6 1006 5.2 23.1 28.4 46.3 121.8 120.2 414.7
04/05 19:30 14.1 85 10.32 11.6 7 11 1006 5.2 23.3 28.4 46.4 122.2 120.7 416.4
04/05 19:20 14.3 85 10.44 11.8 11 11 1006.1 5.2 23.5 28.5 46.8 123.2 122.0 421.2
04/05 19:10 14.7 83 10.45 11.8 26 28 1006.1 5.2 23.5 28.4 46.6 122.7 121.5 419.6
04/05 19:00 15.9 79 10.7 12.3 22 35 1006 5.2 24.0 28.4 46.9 123.6 123.0 425.0
04/05 18:50 15.9 81 10.97 12.6 22 24 1006 5.2 24.6 28.9 48.1 126.6 126.8 438.1
04/05 18:40 15.8 80 10.77 12.4 19 24 1006.1 5.2 24.1 28.6 47.3 124.5 124.2 429.0
04/05 18:30 15.8 80 10.77 12.4 20 26 1006.1 5.2 24.1 28.6 47.3 124.5 124.2 429.0
04/05 18:20 15.6 81 10.77 12.4 22 24 1006.1 5.2 24.2 28.7 47.4 124.8 124.5 430.1
04/05 18:10 15.5 80 10.57 12.1 22 28 1006.1 5.2 23.7 28.4 46.6 122.8 121.9 421.0
04/05 18:00 15.3 81 10.58 12.1 20 30 1006 5.2 23.8 28.4 46.8 123.2 122.4 422.5
04/05 17:50 15.3 81 10.58 12.1 24 28 1006.1 5.2 23.8 28.4 46.8 123.2 122.4 422.6
04/05 17:40 15 86 11.03 12.7 17 24 1006.1 5.2 24.7 29.3 48.9 128.8 129.1 446.2
04/05 17:30 14.8 87 11.02 12.7 17 22 1006.2 5.2 24.7 29.4 49.0 129.0 129.3 446.9
04/05 17:20 14.9 88 11.22 12.9 19 24 1006.3 5.2 25.2 29.7 49.8 131.2 132.0 456.2
04/05 17:10 15 88 11.28 13 24 30 1006.2 5.2 25.3 29.7 50.0 131.7 132.7 458.6
04/05 17:00 14.7 90 11.33 13.1 19 24 1006.2 5.2 25.4 29.9 50.4 132.8 133.9 462.8
04/05 16:50 14.3 91 11.18 12.9 15 17 1006.1 5.2 25.1 29.8 50.0 131.7 132.5 457.7
04/05 16:40 14.1 91 11.04 12.7 15 19 1006.2 5.2 24.8 29.6 49.5 130.4 130.8 452.0
04/05 16:30 14.1 90 10.92 12.5 19 28 1006.2 5.2 24.6 29.4 49.0 129.0 129.1 446.0
04/05 16:20 14.1 89 10.8 12.3 13 17 1006.2 4.6 24.3 29.2 48.5 127.6 127.4 440.1
04/05 16:10 14.5 87 10.82 12.4 30 35 1006.3 1.8 24.3 29.1 48.3 127.2 127.0 438.8

Last Refresh: 05-May-2026 08:24:55

Bureau of Meteorology